Time;durP1;ratioP1;P1;durP2;ratioP2;P2;SDS_P1;SDS_P2;PMS_P1;PMS_P2;Temp;Humidity;BMP_temperature;BMP_pressure;BME280_temperature;BME280_humidity;BME280_pressure;Samples;Min_cycle;Max_cycle;Signal;HPM_P1;HPM_P2
2022/05/22 00:01:53;;;;;;;11.98;6.40;;;14.00;49.30;;;;;;5014013;28;20893;-75
2022/05/22 00:04:19;;;;;;;15.77;6.30;;;14.10;47.50;;;;;;5011278;28;20413;-74
2022/05/22 00:06:44;;;;;;;17.08;6.18;;;14.20;47.40;;;;;;5026559;28;20414;-76
2022/05/22 00:09:10;;;;;;;14.43;6.68;;;14.40;45.40;;;;;;5017021;28;20416;-75
2022/05/22 00:11:36;;;;;;;12.37;6.53;;;14.30;46.90;;;;;;5015400;28;20400;-75
2022/05/22 00:14:01;;;;;;;20.33;7.20;;;14.30;46.70;;;;;;5012390;28;20878;-74
2022/05/22 00:16:36;;;;;;;13.77;6.80;;;14.30;46.70;;;;;;5016702;28;20828;-75
2022/05/22 00:19:03;;;;;;;17.58;7.13;;;14.20;47.40;;;;;;5014235;28;20409;-75
2022/05/22 00:21:29;;;;;;;17.10;7.20;;;14.20;47.80;;;;;;5014618;28;20463;-75
2022/05/22 00:23:54;;;;;;;10.70;7.10;;;14.20;48.40;;;;;;5015996;28;20778;-76
2022/05/22 00:26:20;;;;;;;19.07;7.53;;;14.00;49.10;;;;;;5016091;28;20808;-76
2022/05/22 00:28:45;;;;;;;15.45;7.20;;;13.90;50.50;;;;;;5013362;28;20467;-76
2022/05/22 00:31:11;;;;;;;18.77;8.02;;;13.90;51.00;;;;;;5014556;28;20411;-75
2022/05/22 00:33:37;;;;;;;20.08;7.10;;;14.00;49.60;;;;;;5015724;28;20415;-75
2022/05/22 00:36:03;;;;;;;15.70;6.97;;;14.00;49.30;;;;;;5019073;28;20842;-76
2022/05/22 00:38:29;;;;;;;16.30;7.90;;;14.00;49.30;;;;;;5018137;28;20408;-75
2022/05/22 00:40:54;;;;;;;14.27;7.22;;;13.80;50.10;;;;;;5019559;28;20463;-75
2022/05/22 00:43:34;;;;;;;17.80;7.40;;;13.70;51.60;;;;;;5021822;28;20412;-76
2022/05/22 00:46:02;;;;;;;17.05;7.60;;;13.40;53.80;;;;;;5024236;28;20440;-75
2022/05/22 00:48:28;;;;;;;13.50;8.75;;;13.50;54.80;;;;;;5011480;28;20409;-74
2022/05/22 00:51:00;;;;;;;12.93;7.50;;;13.50;54.60;;;;;;5011345;28;20542;-76
2022/05/22 00:53:29;;;;;;;18.42;7.85;;;13.40;56.20;;;;;;5013165;28;20488;-75
2022/05/22 00:55:54;;;;;;;22.23;8.23;;;13.40;55.80;;;;;;5015711;28;20397;-74
2022/05/22 00:58:24;;;;;;;21.35;8.05;;;13.50;54.20;;;;;;5011086;28;20416;-75
2022/05/22 01:00:50;;;;;;;14.10;7.63;;;13.50;54.40;;;;;;5007612;28;20410;-74
2022/05/22 01:03:31;;;;;;;16.23;7.90;;;13.60;53.80;;;;;;5016934;28;20692;-75
2022/05/22 01:06:07;;;;;;;14.85;8.75;;;13.40;55.70;;;;;;5011121;28;20408;-74
2022/05/22 01:08:34;;;;;;;20.85;9.43;;;13.10;58.70;;;;;;5010584;28;20419;-74
2022/05/22 01:11:11;;;;;;;15.38;8.60;;;13.00;61.50;;;;;;5012369;28;20917;-75
2022/05/22 01:13:41;;;;;;;15.50;8.15;;;12.90;61.60;;;;;;5010545;28;20405;-75
2022/05/22 01:16:06;;;;;;;18.35;7.63;;;13.10;60.70;;;;;;5013480;28;20401;-75
2022/05/22 01:18:45;;;;;;;18.10;7.88;;;13.10;58.90;;;;;;5009306;28;20423;-74
2022/05/22 01:21:15;;;;;;;20.80;8.00;;;13.00;60.40;;;;;;5011484;28;20403;-75
2022/05/22 01:23:42;;;;;;;15.93;8.45;;;13.00;61.20;;;;;;5012999;28;20483;-76
2022/05/22 01:26:07;;;;;;;16.27;7.55;;;13.10;60.90;;;;;;5010595;28;20416;-75
2022/05/22 01:28:33;;;;;;;15.60;7.90;;;13.20;58.80;;;;;;5011719;28;20413;-75
2022/05/22 01:31:00;;;;;;;16.65;8.55;;;13.20;58.90;;;;;;5020171;28;20878;-77
2022/05/22 01:33:26;;;;;;;15.35;8.13;;;13.20;60.90;;;;;;5018191;28;20436;-76
2022/05/22 01:35:52;;;;;;;20.02;9.20;;;13.10;61.80;;;;;;5011042;28;20901;-76
2022/05/22 01:38:17;;;;;;;19.02;8.88;;;13.10;61.20;;;;;;5010527;28;20405;-75
2022/05/22 01:40:43;;;;;;;14.07;7.90;;;12.90;63.00;;;;;;5017045;28;20429;-76
2022/05/22 01:43:09;;;;;;;17.33;8.32;;;12.90;64.80;;;;;;5014312;28;20409;-76
2022/05/22 01:45:35;;;;;;;16.20;7.95;;;13.00;61.90;;;;;;5011038;28;20408;-75
2022/05/22 01:48:01;;;;;;;23.20;8.43;;;12.80;63.40;;;;;;5009766;28;20416;-74
2022/05/22 01:50:28;;;;;;;17.73;9.77;;;12.60;65.90;;;;;;5016218;28;20416;-75
2022/05/22 01:52:54;;;;;;;14.93;8.88;;;12.50;68.00;;;;;;5014179;28;20500;-75
2022/05/22 01:55:20;;;;;;;18.87;9.77;;;12.40;69.40;;;;;;5011419;28;20925;-75
2022/05/22 01:57:45;;;;;;;17.33;8.38;;;12.30;70.80;;;;;;5009827;28;20794;-75
2022/05/22 02:00:16;;;;;;;15.88;8.40;;;12.50;70.60;;;;;;5017024;28;20792;-75
2022/05/22 02:02:42;;;;;;;15.80;8.05;;;12.70;68.50;;;;;;5013290;28;20488;-75
2022/05/22 02:05:08;;;;;;;16.27;8.30;;;12.70;69.40;;;;;;5009305;28;20400;-75
2022/05/22 02:10:19;;;;;;;17.40;8.50;;;12.60;69.20;;;;;;5011034;28;20818;-75
2022/05/22 02:12:44;;;;;;;14.73;8.32;;;12.70;70.60;;;;;;5009343;28;20416;-76
2022/05/22 02:15:11;;;;;;;17.25;8.43;;;12.70;69.60;;;;;;5013368;28;20762;-76
2022/05/22 02:17:36;;;;;;;19.92;9.60;;;12.70;69.30;;;;;;5011419;28;20892;-76
2022/05/22 02:20:03;;;;;;;20.70;8.90;;;12.60;70.10;;;;;;5021552;28;20457;-76
2022/05/22 02:22:29;;;;;;;20.77;8.05;;;12.70;71.60;;;;;;5017712;28;20411;-76
2022/05/22 02:24:55;;;;;;;17.80;8.80;;;13.00;66.30;;;;;;5014556;28;20405;-75
2022/05/22 02:27:20;;;;;;;15.50;8.40;;;13.00;65.20;;;;;;5013269;28;20404;-76
2022/05/22 02:29:47;;;;;;;17.50;8.70;;;12.90;65.50;;;;;;5015900;28;20409;-75
2022/05/22 02:32:12;;;;;;;17.48;8.80;;;12.70;66.80;;;;;;5013517;28;20773;-76
2022/05/22 02:34:38;;;;;;;17.08;8.43;;;12.60;69.50;;;;;;5013455;28;20499;-76
2022/05/22 02:37:04;;;;;;;17.20;8.82;;;12.40;71.40;;;;;;5013574;28;20475;-76
2022/05/22 02:39:30;;;;;;;18.13;8.30;;;12.50;73.40;;;;;;5015211;28;20421;-75
2022/05/22 02:42:04;;;;;;;17.10;8.40;;;12.40;71.80;;;;;;5019253;28;20429;-76
2022/05/22 02:44:30;;;;;;;16.40;9.00;;;12.30;74.10;;;;;;5013113;28;20408;-76
2022/05/22 02:46:56;;;;;;;16.58;8.80;;;12.20;75.60;;;;;;5015710;28;20436;-76
2022/05/22 02:49:21;;;;;;;20.83;8.87;;;12.20;75.80;;;;;;5012538;28;20423;-76
2022/05/22 02:51:47;;;;;;;13.07;8.70;;;12.10;77.10;;;;;;5019831;28;20535;-75
2022/05/22 02:54:12;;;;;;;17.88;8.55;;;12.20;77.60;;;;;;5015492;28;20405;-75
2022/05/22 02:56:38;;;;;;;15.63;8.20;;;12.20;77.30;;;;;;5013176;28;20405;-75
2022/05/22 02:59:04;;;;;;;16.23;7.93;;;12.80;70.30;;;;;;5018401;28;20415;-76
2022/05/22 03:01:29;;;;;;;17.73;8.80;;;13.10;65.10;;;;;;5016350;28;21182;-74
2022/05/22 03:03:55;;;;;;;15.50;8.40;;;13.20;63.90;;;;;;5013367;28;20401;-76
2022/05/22 03:06:38;;;;;;;14.10;8.90;;;13.00;65.30;;;;;;5016345;28;20880;-74
2022/05/22 03:09:13;;;;;;;16.75;8.45;;;12.70;68.80;;;;;;5019230;28;20407;-76
2022/05/22 03:11:40;;;;;;;15.15;8.73;;;12.50;72.60;;;;;;5011211;28;20422;-76
2022/05/22 03:14:06;;;;;;;18.95;8.10;;;12.40;75.00;;;;;;5013524;28;20401;-75
2022/05/22 03:16:33;;;;;;;19.55;8.65;;;12.30;76.50;;;;;;5013020;28;20536;-75
2022/05/22 03:18:59;;;;;;;12.20;8.20;;;12.40;77.00;;;;;;5017125;28;20417;-75
2022/05/22 03:21:27;;;;;;;23.77;9.73;;;12.40;76.10;;;;;;5013006;28;20483;-76
2022/05/22 03:23:53;;;;;;;19.23;9.38;;;12.40;76.40;;;;;;5012347;28;20498;-76
2022/05/22 03:26:19;;;;;;;20.45;8.02;;;12.40;76.10;;;;;;5015042;28;20393;-75
2022/05/22 03:28:44;;;;;;;19.30;8.65;;;12.50;74.60;;;;;;5015562;28;20463;-75
2022/05/22 03:31:10;;;;;;;19.58;8.30;;;12.50;74.40;;;;;;5018192;28;20443;-75
2022/05/22 03:33:36;;;;;;;17.23;8.03;;;12.60;72.30;;;;;;5012017;28;20407;-75
2022/05/22 03:36:01;;;;;;;25.50;8.50;;;12.50;73.40;;;;;;5012072;28;20392;-76
2022/05/22 03:38:27;;;;;;;16.73;8.37;;;12.40;74.10;;;;;;5014396;28;20460;-75
2022/05/22 03:40:53;;;;;;;18.30;8.43;;;12.40;75.80;;;;;;5018168;28;20420;-76
2022/05/22 03:43:18;;;;;;;15.00;7.20;;;12.70;73.00;;;;;;5018591;28;20418;-76
2022/05/22 03:45:44;;;;;;;19.47;8.43;;;12.60;72.30;;;;;;5015589;28;20487;-76
2022/05/22 03:48:11;;;;;;;19.52;9.45;;;12.50;74.90;;;;;;5017606;28;20421;-76
2022/05/22 03:50:37;;;;;;;18.20;8.60;;;12.40;76.50;;;;;;5018836;28;20400;-76
2022/05/22 03:53:03;;;;;;;19.40;8.50;;;12.50;76.50;;;;;;5011397;28;20878;-76
2022/05/22 03:55:30;;;;;;;20.52;9.45;;;12.70;74.70;;;;;;5011458;28;20890;-76
2022/05/22 03:57:55;;;;;;;17.63;8.87;;;12.60;74.80;;;;;;5012644;28;20466;-75
2022/05/22 04:00:23;;;;;;;22.48;9.90;;;12.50;75.90;;;;;;5021111;28;20395;-75
2022/05/22 04:02:49;;;;;;;19.83;9.20;;;12.50;76.90;;;;;;5006592;28;20449;-76
2022/05/22 04:05:15;;;;;;;17.05;9.52;;;12.50;77.30;;;;;;5021569;28;20902;-74
2022/05/22 04:07:43;;;;;;;18.92;8.52;;;12.50;78.00;;;;;;5010697;28;20413;-76
2022/05/22 04:10:10;;;;;;;17.52;9.30;;;12.60;77.00;;;;;;5015389;28;20395;-76
2022/05/22 04:12:36;;;;;;;21.77;9.10;;;12.60;76.20;;;;;;5011194;28;20396;-75
2022/05/22 04:15:04;;;;;;;17.48;8.52;;;12.70;74.90;;;;;;5010517;28;20408;-75
2022/05/22 04:17:29;;;;;;;19.73;9.45;;;12.70;73.90;;;;;;5012365;28;20641;-75
2022/05/22 04:19:55;;;;;;;20.20;9.70;;;12.80;73.10;;;;;;5020078;28;20494;-75
2022/05/22 04:22:21;;;;;;;20.27;9.70;;;12.80;72.80;;;;;;5018743;28;20406;-76
2022/05/22 04:27:31;;;;;;;19.10;9.52;;;12.70;75.00;;;;;;5011461;28;20435;-75
2022/05/22 04:29:56;;;;;;;21.55;9.70;;;12.70;75.80;;;;;;5021646;28;20408;-75
2022/05/22 04:32:22;;;;;;;20.13;10.50;;;12.70;76.50;;;;;;5015256;28;20404;-76
2022/05/22 04:34:47;;;;;;;19.55;8.70;;;12.80;75.40;;;;;;5011573;28;20492;-75
2022/05/22 04:37:13;;;;;;;19.30;8.80;;;12.90;73.90;;;;;;5011008;28;20401;-75
2022/05/22 04:39:39;;;;;;;19.52;9.73;;;13.00;70.70;;;;;;5017954;28;20420;-75
2022/05/22 04:42:05;;;;;;;19.27;9.70;;;13.10;69.20;;;;;;5020562;28;20387;-75
2022/05/22 04:44:31;;;;;;;17.20;9.43;;;13.20;68.60;;;;;;5016307;28;20893;-75
2022/05/22 04:46:59;;;;;;;22.02;11.18;;;13.10;70.30;;;;;;5016959;28;20417;-76
2022/05/22 04:49:25;;;;;;;18.67;10.48;;;13.10;70.00;;;;;;5012366;28;20411;-76
2022/05/22 04:51:51;;;;;;;22.33;10.13;;;13.10;71.00;;;;;;5011066;28;20766;-76
2022/05/22 04:54:16;;;;;;;17.90;9.10;;;13.10;71.00;;;;;;5010693;28;20440;-76
2022/05/22 04:56:42;;;;;;;19.10;10.30;;;13.20;70.50;;;;;;5010199;28;20415;-74
2022/05/22 04:59:08;;;;;;;22.77;10.07;;;13.30;69.10;;;;;;5015093;28;20540;-76
2022/05/22 05:01:33;;;;;;;18.77;9.27;;;13.50;67.90;;;;;;5018850;28;20908;-76
2022/05/22 05:03:59;;;;;;;15.33;9.20;;;13.60;66.00;;;;;;5015096;28;20773;-77
2022/05/22 05:06:29;;;;;;;20.48;9.30;;;13.80;65.20;;;;;;5012918;28;20411;-76
2022/05/22 05:08:54;;;;;;;18.75;9.55;;;13.90;63.20;;;;;;5017683;28;20447;-76
2022/05/22 05:11:20;;;;;;;15.05;8.20;;;14.00;61.20;;;;;;5011379;28;20584;-77
2022/05/22 05:13:46;;;;;;;17.00;8.77;;;14.20;58.00;;;;;;5010670;28;20403;-76
2022/05/22 05:16:13;;;;;;;18.43;8.77;;;14.20;57.40;;;;;;5018417;28;20414;-75
2022/05/22 05:18:39;;;;;;;18.70;9.35;;;14.40;55.40;;;;;;5030414;28;20401;-76
2022/05/22 05:21:11;;;;;;;21.90;8.73;;;14.60;54.50;;;;;;5031225;28;20431;-75
2022/05/22 05:23:37;;;;;;;17.70;8.13;;;14.70;51.40;;;;;;5021825;28;20400;-76
2022/05/22 05:26:04;;;;;;;18.70;8.00;;;14.90;49.90;;;;;;5014912;28;20411;-75
2022/05/22 05:28:30;;;;;;;16.33;8.50;;;15.20;47.30;;;;;;5020616;28;20407;-75
2022/05/22 05:30:56;;;;;;;17.05;8.50;;;15.30;47.70;;;;;;5010932;28;20901;-75
2022/05/22 05:33:21;;;;;;;14.80;7.80;;;15.30;48.30;;;;;;5011332;28;20416;-75
2022/05/22 05:35:47;;;;;;;16.33;9.00;;;15.40;46.40;;;;;;5010632;28;20435;-75
2022/05/22 05:38:13;;;;;;;15.43;8.52;;;15.50;45.40;;;;;;5020106;28;20432;-76
2022/05/22 05:40:39;;;;;;;18.25;8.75;;;15.40;46.00;;;;;;5018863;28;20877;-74
2022/05/22 05:43:05;;;;;;;17.80;7.75;;;15.40;47.10;;;;;;5010393;28;20496;-75
2022/05/22 05:45:31;;;;;;;19.13;8.40;;;15.50;47.10;;;;;;5011430;28;20880;-75
2022/05/22 05:47:57;;;;;;;15.17;8.63;;;15.60;46.00;;;;;;5022158;28;20439;-75
2022/05/22 05:50:26;;;;;;;22.90;9.20;;;15.60;46.60;;;;;;5016935;28;20874;-74
2022/05/22 05:52:53;;;;;;;13.35;6.80;;;15.70;45.70;;;;;;5014234;28;20408;-75
2022/05/22 05:55:19;;;;;;;18.63;8.70;;;15.80;45.30;;;;;;5013167;28;20830;-76
2022/05/22 05:57:45;;;;;;;18.63;8.25;;;15.90;45.80;;;;;;5018143;28;20492;-76
2022/05/22 06:00:14;;;;;;;21.40;8.88;;;16.00;44.00;;;;;;5018731;28;20401;-76
2022/05/22 06:02:40;;;;;;;19.42;8.25;;;16.10;41.70;;;;;;5015981;28;20538;-75
2022/05/22 06:05:06;;;;;;;19.00;8.60;;;16.20;40.70;;;;;;5023132;28;20412;-76
2022/05/22 06:07:31;;;;;;;16.00;7.90;;;16.20;41.00;;;;;;5013568;28;20497;-76
2022/05/22 06:09:58;;;;;;;19.30;9.00;;;16.30;40.60;;;;;;5013569;28;20504;-75
2022/05/22 06:12:24;;;;;;;21.50;8.32;;;16.40;40.50;;;;;;5016078;28;20976;-75
2022/05/22 06:14:50;;;;;;;19.10;9.10;;;16.50;38.90;;;;;;5018410;28;20539;-75
2022/05/22 06:17:16;;;;;;;18.60;8.23;;;16.70;38.80;;;;;;5022763;28;20877;-76
2022/05/22 06:19:59;;;;;;;17.85;7.70;;;16.70;39.20;;;;;;5018011;28;20412;-74
2022/05/22 06:22:29;;;;;;;17.02;8.15;;;17.00;38.60;;;;;;5016463;28;20412;-75
2022/05/22 06:24:55;;;;;;;19.25;7.60;;;17.00;37.20;;;;;;5022778;28;20769;-75
2022/05/22 06:27:21;;;;;;;21.73;7.82;;;17.40;35.50;;;;;;5013172;28;20401;-75
2022/05/22 06:29:47;;;;;;;23.88;8.45;;;17.30;34.70;;;;;;5013462;28;20397;-75
2022/05/22 06:32:16;;;;;;;15.90;8.48;;;17.30;34.80;;;;;;5015588;28;20965;-74
2022/05/22 06:34:42;;;;;;;18.80;8.37;;;17.30;34.20;;;;;;5022070;28;20494;-75
2022/05/22 06:37:18;;;;;;;16.65;8.43;;;17.30;34.10;;;;;;5009174;28;20490;-75
2022/05/22 06:39:50;;;;;;;17.75;8.40;;;17.30;33.20;;;;;;5011584;28;20408;-75
2022/05/22 06:42:25;;;;;;;22.70;8.57;;;17.40;32.10;;;;;;5022455;28;20412;-75
2022/05/22 06:44:52;;;;;;;16.27;7.93;;;17.50;31.80;;;;;;5020683;28;20396;-71
2022/05/22 06:47:18;;;;;;;14.95;7.85;;;17.50;32.00;;;;;;5007319;28;20417;-75
2022/05/22 06:49:44;;;;;;;24.70;8.63;;;17.50;33.70;;;;;;5014777;28;20792;-74
2022/05/22 06:52:09;;;;;;;17.65;8.60;;;17.40;32.40;;;;;;5008333;28;20412;-74
2022/05/22 06:54:35;;;;;;;19.33;8.82;;;17.50;32.20;;;;;;5006113;28;20434;-75
2022/05/22 06:57:01;;;;;;;18.83;8.90;;;17.50;32.50;;;;;;5009202;28;20427;-75
2022/05/22 06:59:26;;;;;;;20.13;9.40;;;17.60;32.10;;;;;;5004716;28;20501;-74
2022/05/22 07:01:52;;;;;;;16.45;8.20;;;17.60;32.00;;;;;;5010622;28;20434;-73
2022/05/22 07:04:21;;;;;;;14.70;8.30;;;17.80;31.30;;;;;;5017117;28;20890;-75
2022/05/22 07:06:47;;;;;;;17.65;9.18;;;17.80;31.70;;;;;;5006043;28;20536;-75
2022/05/22 07:09:13;;;;;;;21.95;8.82;;;17.70;31.70;;;;;;5010327;28;20411;-74
2022/05/22 07:11:38;;;;;;;17.88;9.18;;;17.80;31.60;;;;;;5008503;28;20424;-73
2022/05/22 07:14:10;;;;;;;18.10;9.50;;;18.10;31.40;;;;;;5010463;28;20475;-76
2022/05/22 07:16:38;;;;;;;19.40;9.90;;;18.00;31.40;;;;;;5010305;28;20405;-77
2022/05/22 07:19:05;;;;;;;15.75;8.75;;;18.00;30.00;;;;;;5007825;28;20424;-75
2022/05/22 07:21:31;;;;;;;18.30;8.33;;;18.10;30.20;;;;;;5012436;28;20430;-76
2022/05/22 07:23:59;;;;;;;15.73;8.43;;;18.20;30.20;;;;;;5014846;28;20436;-75
2022/05/22 07:26:28;;;;;;;21.70;9.65;;;18.50;30.00;;;;;;5006207;28;20759;-76
2022/05/22 07:28:54;;;;;;;19.88;9.40;;;18.60;28.70;;;;;;5008634;28;20742;-75
2022/05/22 07:31:24;;;;;;;19.70;9.55;;;18.70;27.60;;;;;;5014031;28;20403;-76
2022/05/22 07:33:50;;;;;;;20.88;9.07;;;18.70;28.30;;;;;;5015294;28;20487;-74
2022/05/22 07:36:16;;;;;;;20.55;9.70;;;18.80;27.30;;;;;;5015574;28;20444;-74
2022/05/22 07:38:42;;;;;;;18.63;10.00;;;18.90;25.60;;;;;;5013754;28;20423;-76
2022/05/22 07:41:08;;;;;;;26.15;11.55;;;18.90;25.10;;;;;;5023027;28;20399;-77
2022/05/22 07:43:34;;;;;;;22.80;10.55;;;18.80;26.00;;;;;;5017289;28;20883;-77
2022/05/22 07:46:00;;;;;;;23.48;10.88;;;18.90;26.30;;;;;;5025658;28;20416;-77
2022/05/22 07:48:26;;;;;;;19.38;10.60;;;18.80;24.90;;;;;;5015825;28;20413;-77
2022/05/22 07:50:57;;;;;;;18.83;9.40;;;18.80;25.40;;;;;;5015216;28;20503;-77
2022/05/22 07:53:23;;;;;;;18.90;9.90;;;18.80;25.80;;;;;;5012812;28;20425;-76
2022/05/22 07:55:51;;;;;;;19.98;9.15;;;19.00;24.20;;;;;;5020393;28;20405;-79
2022/05/22 07:58:22;;;;;;;19.10;9.53;;;19.20;23.50;;;;;;5021152;28;20427;-77
2022/05/22 08:00:52;;;;;;;17.17;8.60;;;19.30;23.70;;;;;;5018287;28;20475;-77
2022/05/22 08:03:19;;;;;;;13.07;7.43;;;19.30;23.00;;;;;;5023843;28;20422;-76
2022/05/22 08:05:45;;;;;;;20.60;9.50;;;19.30;22.90;;;;;;5012162;28;20882;-77
2022/05/22 08:08:11;;;;;;;16.55;8.40;;;19.50;22.80;;;;;;5015143;28;20486;-79
2022/05/22 08:10:40;;;;;;;13.60;7.20;;;19.30;22.50;;;;;;5033050;23;20463;-77
2022/05/22 08:13:07;;;;;;;20.00;7.95;;;19.30;22.20;;;;;;5032524;28;20417;-77
2022/05/22 08:15:34;;;;;;;18.80;7.78;;;19.60;22.40;;;;;;5026652;28;20504;-75
2022/05/22 08:18:00;;;;;;;18.08;8.40;;;19.70;20.40;;;;;;5026419;28;20451;-76
2022/05/22 08:20:28;;;;;;;14.98;7.90;;;20.00;20.00;;;;;;5028748;28;20418;-75
2022/05/22 08:22:56;;;;;;;17.65;9.15;;;20.10;19.60;;;;;;5028267;28;20787;-74
2022/05/22 08:25:24;;;;;;;20.65;8.60;;;20.40;19.30;;;;;;5031312;28;20486;-73
2022/05/22 08:27:51;;;;;;;15.02;8.30;;;20.40;18.50;;;;;;5031077;28;20431;-75
2022/05/22 08:30:17;;;;;;;19.83;7.68;;;20.40;18.20;;;;;;5031189;28;20418;-75
2022/05/22 08:32:45;;;;;;;15.27;7.60;;;20.40;18.10;;;;;;5029370;28;20402;-74
2022/05/22 08:35:15;;;;;;;19.90;7.50;;;20.60;18.00;;;;;;5027014;28;20399;-75
2022/05/22 08:37:41;;;;;;;13.53;7.50;;;20.70;17.80;;;;;;5031628;28;20441;-74
2022/05/22 08:40:08;;;;;;;16.58;7.00;;;20.80;17.80;;;;;;5030980;28;20438;-76
2022/05/22 08:42:48;;;;;;;22.13;8.30;;;21.20;17.90;;;;;;5030720;28;20403;-76
2022/05/22 08:45:18;;;;;;;15.30;6.95;;;21.30;17.80;;;;;;5027935;28;20409;-75
2022/05/22 08:47:56;;;;;;;12.27;6.13;;;21.20;17.00;;;;;;5031123;28;20418;-74
2022/05/22 08:50:23;;;;;;;14.70;6.60;;;21.20;17.20;;;;;;5030908;28;20457;-74
2022/05/22 08:53:01;;;;;;;18.45;7.57;;;21.30;16.10;;;;;;5030500;28;20465;-75
2022/05/22 08:58:57;;;;;;;17.47;7.87;;;21.70;16.30;;;;;;5029101;28;20912;-75
2022/05/22 09:01:48;;;;;;;14.32;6.50;;;21.90;15.70;;;;;;5028998;28;20422;-75
2022/05/22 09:04:35;;;;;;;17.67;6.63;;;21.80;16.40;;;;;;5026075;28;20798;-75
2022/05/22 09:07:29;;;;;;;13.82;6.93;;;22.10;16.40;;;;;;5025836;28;20418;-74
2022/05/22 09:10:02;;;;;;;15.35;7.18;;;22.60;13.80;;;;;;5023317;28;20419;-73
2022/05/22 09:12:59;;;;;;;20.02;7.10;;;22.40;14.70;;;;;;5030396;28;20445;-75
2022/05/22 09:15:51;;;;;;;10.30;5.43;;;22.30;15.70;;;;;;5028498;28;20391;-75
2022/05/22 09:18:34;;;;;;;15.18;6.63;;;22.20;14.50;;;;;;5023462;28;20435;-75
2022/05/22 09:21:14;;;;;;;10.13;6.10;;;22.30;15.70;;;;;;5029559;28;20430;-75
2022/05/22 09:23:54;;;;;;;13.15;6.15;;;22.60;14.80;;;;;;5032150;28;20411;-73
2022/05/22 09:26:38;;;;;;;13.60;6.32;;;23.10;14.60;;;;;;5028877;28;20407;-75
2022/05/22 09:29:26;;;;;;;15.60;6.88;;;23.20;13.40;;;;;;5034310;28;20426;-75
2022/05/22 09:32:14;;;;;;;15.13;6.63;;;23.20;12.30;;;;;;5033668;28;20407;-77
2022/05/22 09:34:52;;;;;;;17.95;6.50;;;23.10;12.30;;;;;;5034942;28;20478;-75
2022/05/22 09:37:32;;;;;;;14.43;6.55;;;23.30;12.80;;;;;;5035424;28;20453;-76
2022/05/22 09:40:11;;;;;;;11.75;6.18;;;23.40;12.20;;;;;;5033444;28;20430;-76
2022/05/22 09:42:51;;;;;;;12.77;6.57;;;23.50;11.70;;;;;;5036130;28;20485;-77
2022/05/22 09:45:44;;;;;;;13.33;6.20;;;23.40;13.20;;;;;;5033785;28;20387;-77
2022/05/22 09:48:33;;;;;;;15.73;7.05;;;23.50;11.50;;;;;;5031194;28;20414;-77
2022/05/22 09:51:32;;;;;;;13.32;6.63;;;23.20;10.60;;;;;;5030743;28;20399;-77
2022/05/22 09:54:35;;;;;;;15.30;6.45;;;22.90;11.00;;;;;;5032052;28;20442;-76
2022/05/22 09:57:11;;;;;;;14.90;5.90;;;23.10;12.20;;;;;;5034820;28;20402;-76
2022/05/22 09:59:39;;;;;;;11.88;5.20;;;23.30;14.10;;;;;;5033684;28;20461;-75
2022/05/22 10:02:27;;;;;;;14.47;5.50;;;23.40;13.30;;;;;;5035837;28;20406;-74
2022/05/22 10:05:24;;;;;;;14.65;6.20;;;23.70;13.10;;;;;;5035058;28;20431;-76
2022/05/22 10:08:25;;;;;;;13.05;5.70;;;23.50;11.80;;;;;;5036398;28;20418;-75
2022/05/22 10:11:01;;;;;;;13.55;5.68;;;23.30;12.90;;;;;;5034971;28;20926;-76
2022/05/22 10:13:42;;;;;;;12.90;6.13;;;23.20;13.30;;;;;;5034800;28;20514;-75
2022/05/22 10:16:22;;;;;;;13.77;6.80;;;23.30;13.30;;;;;;5031307;28;20490;-76
2022/05/22 10:19:03;;;;;;;16.33;6.33;;;23.50;12.30;;;;;;5033671;28;20946;-75
2022/05/22 10:21:53;;;;;;;12.35;6.00;;;23.70;12.20;;;;;;5034773;28;20391;-74
2022/05/22 10:24:26;;;;;;;10.50;5.60;;;23.90;11.70;;;;;;5027934;28;20911;-76
2022/05/22 10:26:54;;;;;;;13.85;7.20;;;23.60;11.70;;;;;;5033580;28;20892;-76
2022/05/22 10:29:35;;;;;;;12.07;6.53;;;23.20;11.80;;;;;;5032699;28;20406;-75
2022/05/22 10:32:08;;;;;;;11.55;5.85;;;22.80;14.50;;;;;;5033531;28;20422;-75
2022/05/22 10:34:36;;;;;;;17.33;6.20;;;22.90;13.70;;;;;;5031706;28;20403;-74
2022/05/22 10:37:32;;;;;;;17.48;6.40;;;23.20;12.30;;;;;;5031867;28;20433;-75
2022/05/22 10:40:02;;;;;;;9.80;5.00;;;23.50;12.00;;;;;;5032561;28;20421;-74
2022/05/22 10:42:45;;;;;;;13.77;5.43;;;23.80;12.60;;;;;;5034513;28;20919;-74
2022/05/22 10:45:32;;;;;;;14.50;5.25;;;23.80;11.30;;;;;;5034657;28;20499;-76
2022/05/22 10:48:10;;;;;;;10.50;5.20;;;24.00;12.00;;;;;;5036077;28;20507;-76
2022/05/22 10:50:36;;;;;;;14.80;5.60;;;24.10;10.10;;;;;;5033906;28;20410;-74
2022/05/22 10:53:02;;;;;;;12.13;5.50;;;24.10;10.70;;;;;;5034057;28;20950;-74
2022/05/22 10:56:00;;;;;;;13.05;4.75;;;24.10;11.00;;;;;;5034489;28;20620;-74
2022/05/22 10:58:30;;;;;;;15.25;5.22;;;24.20;11.90;;;;;;5030046;28;20414;-74
2022/05/22 11:00:58;;;;;;;10.32;5.82;;;24.10;11.70;;;;;;5034296;28;20940;-75
2022/05/22 11:03:27;;;;;;;13.82;6.10;;;23.70;10.70;;;;;;5033417;28;20805;-75
2022/05/22 11:05:53;;;;;;;11.40;6.13;;;23.50;11.20;;;;;;5035122;28;20817;-75
2022/05/22 11:08:32;;;;;;;14.20;7.10;;;23.70;10.80;;;;;;5031752;28;20803;-76
2022/05/22 11:11:12;;;;;;;12.75;6.78;;;23.70;10.00;;;;;;5033358;28;20407;-75
2022/05/22 11:13:38;;;;;;;17.25;6.45;;;23.90;10.40;;;;;;5033666;28;20415;-74
2022/05/22 11:16:13;;;;;;;14.20;6.80;;;24.20;9.60;;;;;;5031692;28;20403;-75
2022/05/22 11:18:38;;;;;;;11.05;6.40;;;24.40;9.50;;;;;;5030760;28;20415;-75
2022/05/22 11:21:16;;;;;;;17.20;8.40;;;24.40;10.20;;;;;;5033101;28;20414;-76
2022/05/22 11:24:03;;;;;;;12.23;6.20;;;24.10;10.50;;;;;;5035619;28;20410;-75
2022/05/22 11:27:03;;;;;;;13.38;6.45;;;24.30;10.40;;;;;;5030194;28;20747;-75
2022/05/22 11:29:29;;;;;;;13.88;5.95;;;24.80;9.20;;;;;;5028499;28;20442;-75
2022/05/22 11:32:07;;;;;;;14.37;6.70;;;24.70;9.50;;;;;;5033542;28;20399;-76
2022/05/22 11:34:53;;;;;;;10.48;5.55;;;24.90;9.80;;;;;;5033391;28;20407;-74
2022/05/22 11:37:31;;;;;;;10.60;5.60;;;25.30;9.00;;;;;;5029799;28;20398;-74
2022/05/22 11:40:24;;;;;;;11.38;6.07;;;25.50;8.50;;;;;;5032752;28;21135;-74
2022/05/22 11:43:18;;;;;;;11.15;5.70;;;25.30;9.70;;;;;;5033967;28;20410;-74
2022/05/22 11:46:04;;;;;;;13.95;6.95;;;25.50;8.70;;;;;;5036996;28;20561;-75
2022/05/22 11:49:08;;;;;;;10.73;5.90;;;25.30;6.70;;;;;;5027709;28;20418;-73
2022/05/22 11:52:02;;;;;;;16.55;6.40;;;25.40;7.30;;;;;;5030318;28;20701;-75
2022/05/22 11:54:40;;;;;;;9.70;5.67;;;25.50;7.70;;;;;;5024238;28;20406;-72
2022/05/22 11:57:14;;;;;;;12.63;6.15;;;25.60;7.50;;;;;;5033963;28;20395;-76
2022/05/22 11:59:59;;;;;;;11.83;6.60;;;25.70;7.90;;;;;;5032741;28;20446;-74
2022/05/22 12:03:06;;;;;;;12.77;6.30;;;25.60;6.90;;;;;;5032910;28;20760;-75
2022/05/22 12:05:45;;;;;;;10.43;6.30;;;25.50;9.00;;;;;;5027147;28;20411;-75
2022/05/22 12:08:31;;;;;;;18.90;6.85;;;25.30;7.30;;;;;;5030069;28;20415;-75
2022/05/22 12:11:15;;;;;;;12.07;6.05;;;24.80;7.60;;;;;;5031009;28;20435;-75
2022/05/22 12:14:06;;;;;;;12.73;6.60;;;24.70;9.10;;;;;;5032592;28;20399;-76
2022/05/22 12:16:39;;;;;;;17.92;7.45;;;24.90;8.20;;;;;;5026177;28;20942;-74
2022/05/22 12:19:10;;;;;;;13.15;6.50;;;24.60;8.40;;;;;;5031896;28;20526;-74
2022/05/22 12:22:15;;;;;;;15.43;6.10;;;24.00;8.80;;;;;;5031627;28;20395;-75
2022/05/22 12:24:53;;;;;;;11.90;5.57;;;23.80;9.10;;;;;;5029721;28;20522;-74
2022/05/22 12:27:26;;;;;;;10.60;6.07;;;23.80;9.30;;;;;;5027365;28;20474;-75
2022/05/22 12:30:09;;;;;;;34.83;19.95;;;24.00;10.50;;;;;;5030525;28;20791;-74
2022/05/22 12:32:50;;;;;;;66.50;44.83;;;24.80;7.70;;;;;;5028980;28;20403;-74
2022/05/22 12:35:17;;;;;;;34.70;22.83;;;25.40;9.30;;;;;;5031077;28;20391;-75
2022/05/22 12:37:52;;;;;;;11.60;5.70;;;25.50;7.70;;;;;;5032251;28;20498;-76
2022/05/22 12:40:53;;;;;;;22.55;13.85;;;25.70;6.70;;;;;;5026284;28;20457;-75
2022/05/22 12:43:22;;;;;;;14.32;7.68;;;25.80;6.90;;;;;;5017642;28;20491;-75
2022/05/22 12:45:59;;;;;;;14.20;5.90;;;25.20;7.50;;;;;;5037018;28;20879;-75
2022/05/22 12:48:37;;;;;;;15.05;6.20;;;24.80;9.00;;;;;;5026570;28;20407;-75
2022/05/22 12:51:17;;;;;;;11.48;5.28;;;24.60;8.20;;;;;;5029227;28;20403;-74
2022/05/22 12:53:53;;;;;;;16.02;5.80;;;25.00;8.10;;;;;;5030986;28;20395;-74
2022/05/22 12:56:45;;;;;;;9.88;5.38;;;25.30;7.60;;;;;;5043629;28;20952;-75
2022/05/22 12:59:27;;;;;;;9.90;5.30;;;25.70;8.70;;;;;;5029184;28;20771;-75
2022/05/22 13:01:58;;;;;;;10.77;5.40;;;25.70;8.90;;;;;;5028395;28;20430;-74
2022/05/22 13:04:34;;;;;;;8.88;4.80;;;25.60;7.80;;;;;;5025398;28;20423;-74
2022/05/22 13:07:11;;;;;;;12.32;6.60;;;25.70;7.60;;;;;;5032112;28;20401;-76
2022/05/22 13:09:51;;;;;;;15.73;9.23;;;25.70;8.20;;;;;;5030715;28;20411;-76